sensor_id;sensor_type;location;lat;lon;timestamp;temperature;humidity
20463;DHT22;10390;53.566;9.980;2023-02-08T00:02:15;21.00;1.00
20463;DHT22;10390;53.566;9.980;2023-02-08T00:04:41;21.00;1.00
20463;DHT22;10390;53.566;9.980;2023-02-08T00:07:06;21.00;1.00
20463;DHT22;10390;53.566;9.980;2023-02-08T00:09:32;21.00;1.00
20463;DHT22;10390;53.566;9.980;2023-02-08T00:11:57;20.90;1.00
20463;DHT22;10390;53.566;9.980;2023-02-08T00:14:23;21.00;1.00
20463;DHT22;10390;53.566;9.980;2023-02-08T00:16:49;20.90;1.00
20463;DHT22;10390;53.566;9.980;2023-02-08T00:19:14;20.90;1.00
20463;DHT22;10390;53.566;9.980;2023-02-08T00:21:40;20.90;1.00
20463;DHT22;10390;53.566;9.980;2023-02-08T00:24:06;20.90;1.00
20463;DHT22;10390;53.566;9.980;2023-02-08T00:26:31;20.90;1.00
20463;DHT22;10390;53.566;9.980;2023-02-08T00:28:57;20.90;1.00
20463;DHT22;10390;53.566;9.980;2023-02-08T00:31:22;20.90;1.00
20463;DHT22;10390;53.566;9.980;2023-02-08T00:33:48;20.90;1.00
20463;DHT22;10390;53.566;9.980;2023-02-08T00:36:14;20.90;1.00
20463;DHT22;10390;53.566;9.980;2023-02-08T00:38:40;20.80;1.00
20463;DHT22;10390;53.566;9.980;2023-02-08T00:41:05;20.80;1.00
20463;DHT22;10390;53.566;9.980;2023-02-08T00:43:31;20.80;1.00
20463;DHT22;10390;53.566;9.980;2023-02-08T00:45:58;20.80;1.00
20463;DHT22;10390;53.566;9.980;2023-02-08T00:48:25;20.80;1.00
20463;DHT22;10390;53.566;9.980;2023-02-08T00:51:07;20.80;1.00
20463;DHT22;10390;53.566;9.980;2023-02-08T00:53:37;20.80;1.00
20463;DHT22;10390;53.566;9.980;2023-02-08T00:56:03;20.90;1.00
20463;DHT22;10390;53.566;9.980;2023-02-08T00:58:29;20.90;1.00
20463;DHT22;10390;53.566;9.980;2023-02-08T01:00:55;21.00;1.00
20463;DHT22;10390;53.566;9.980;2023-02-08T01:03:21;21.00;1.00
20463;DHT22;10390;53.566;9.980;2023-02-08T01:05:47;21.00;1.00
20463;DHT22;10390;53.566;9.980;2023-02-08T01:08:13;21.00;1.00
20463;DHT22;10390;53.566;9.980;2023-02-08T01:10:39;21.00;1.00
20463;DHT22;10390;53.566;9.980;2023-02-08T01:13:05;21.10;1.00
20463;DHT22;10390;53.566;9.980;2023-02-08T01:15:31;21.10;1.00
20463;DHT22;10390;53.566;9.980;2023-02-08T01:17:56;21.10;1.00
20463;DHT22;10390;53.566;9.980;2023-02-08T01:20:23;21.10;1.00
20463;DHT22;10390;53.566;9.980;2023-02-08T01:22:49;21.10;1.00
20463;DHT22;10390;53.566;9.980;2023-02-08T01:25:15;21.10;1.00
20463;DHT22;10390;53.566;9.980;2023-02-08T01:27:41;21.10;1.00
20463;DHT22;10390;53.566;9.980;2023-02-08T01:30:07;21.10;1.00
20463;DHT22;10390;53.566;9.980;2023-02-08T01:32:33;21.00;1.00
20463;DHT22;10390;53.566;9.980;2023-02-08T01:34:58;21.00;1.00
20463;DHT22;10390;53.566;9.980;2023-02-08T01:37:24;21.10;1.00
20463;DHT22;10390;53.566;9.980;2023-02-08T01:39:49;21.00;1.00
20463;DHT22;10390;53.566;9.980;2023-02-08T01:42:17;21.00;1.00
20463;DHT22;10390;53.566;9.980;2023-02-08T01:45:35;21.00;1.00
20463;DHT22;10390;53.566;9.980;2023-02-08T01:48:16;20.90;1.00
20463;DHT22;10390;53.566;9.980;2023-02-08T01:53:15;20.90;1.00
20463;DHT22;10390;53.566;9.980;2023-02-08T01:55:46;20.90;1.00
20463;DHT22;10390;53.566;9.980;2023-02-08T01:58:12;20.90;1.00
20463;DHT22;10390;53.566;9.980;2023-02-08T02:00:39;20.90;1.00
20463;DHT22;10390;53.566;9.980;2023-02-08T02:03:05;20.80;1.00
20463;DHT22;10390;53.566;9.980;2023-02-08T02:06:00;20.90;1.00
20463;DHT22;10390;53.566;9.980;2023-02-08T02:08:27;20.80;1.00
20463;DHT22;10390;53.566;9.980;2023-02-08T02:10:53;20.80;1.00
20463;DHT22;10390;53.566;9.980;2023-02-08T02:13:22;20.80;1.00
20463;DHT22;10390;53.566;9.980;2023-02-08T02:15:51;20.80;1.00
20463;DHT22;10390;53.566;9.980;2023-02-08T02:18:22;20.80;1.00
20463;DHT22;10390;53.566;9.980;2023-02-08T02:23:59;20.70;1.00
20463;DHT22;10390;53.566;9.980;2023-02-08T02:35:19;20.70;1.00
20463;DHT22;10390;53.566;9.980;2023-02-08T02:43:22;20.70;1.00
20463;DHT22;10390;53.566;9.980;2023-02-08T02:51:47;20.60;1.00
20463;DHT22;10390;53.566;9.980;2023-02-08T02:54:31;20.60;1.00
20463;DHT22;10390;53.566;9.980;2023-02-08T02:57:01;20.50;1.00
20463;DHT22;10390;53.566;9.980;2023-02-08T02:59:31;20.60;1.00
20463;DHT22;10390;53.566;9.980;2023-02-08T03:01:57;20.60;1.00
20463;DHT22;10390;53.566;9.980;2023-02-08T03:20:52;20.40;1.00
20463;DHT22;10390;53.566;9.980;2023-02-08T03:23:31;20.30;1.00
20463;DHT22;10390;53.566;9.980;2023-02-08T03:26:22;20.40;1.00
20463;DHT22;10390;53.566;9.980;2023-02-08T03:31:55;20.50;1.00
20463;DHT22;10390;53.566;9.980;2023-02-08T03:34:32;20.50;1.00
20463;DHT22;10390;53.566;9.980;2023-02-08T03:37:06;20.50;1.00
20463;DHT22;10390;53.566;9.980;2023-02-08T03:39:35;20.50;1.00
20463;DHT22;10390;53.566;9.980;2023-02-08T03:42:08;20.60;1.00
20463;DHT22;10390;53.566;9.980;2023-02-08T03:44:41;20.60;1.00
20463;DHT22;10390;53.566;9.980;2023-02-08T03:47:15;20.70;1.00
20463;DHT22;10390;53.566;9.980;2023-02-08T03:49:42;20.80;1.00
20463;DHT22;10390;53.566;9.980;2023-02-08T03:52:10;20.80;1.00
20463;DHT22;10390;53.566;9.980;2023-02-08T03:54:43;20.90;1.00
20463;DHT22;10390;53.566;9.980;2023-02-08T03:57:41;20.90;1.00
20463;DHT22;10390;53.566;9.980;2023-02-08T04:00:10;20.90;1.00
20463;DHT22;10390;53.566;9.980;2023-02-08T04:02:41;20.90;1.00
20463;DHT22;10390;53.566;9.980;2023-02-08T04:05:08;20.90;1.00
20463;DHT22;10390;53.566;9.980;2023-02-08T04:07:34;20.90;1.00
20463;DHT22;10390;53.566;9.980;2023-02-08T04:09:59;21.00;1.00
20463;DHT22;10390;53.566;9.980;2023-02-08T04:12:25;20.90;1.00
20463;DHT22;10390;53.566;9.980;2023-02-08T04:14:51;20.90;1.00
20463;DHT22;10390;53.566;9.980;2023-02-08T04:17:16;20.90;1.00
20463;DHT22;10390;53.566;9.980;2023-02-08T04:19:42;20.90;1.00
20463;DHT22;10390;53.566;9.980;2023-02-08T04:22:07;20.80;1.00
20463;DHT22;10390;53.566;9.980;2023-02-08T04:24:33;20.80;1.00
20463;DHT22;10390;53.566;9.980;2023-02-08T04:26:58;20.80;1.00
20463;DHT22;10390;53.566;9.980;2023-02-08T04:29:24;20.80;1.00
20463;DHT22;10390;53.566;9.980;2023-02-08T04:31:50;20.80;1.00
20463;DHT22;10390;53.566;9.980;2023-02-08T04:34:15;20.70;1.00
20463;DHT22;10390;53.566;9.980;2023-02-08T04:36:41;20.70;1.00
20463;DHT22;10390;53.566;9.980;2023-02-08T04:39:07;20.70;1.00
20463;DHT22;10390;53.566;9.980;2023-02-08T04:41:32;20.70;1.00
20463;DHT22;10390;53.566;9.980;2023-02-08T04:43:58;20.60;1.00
20463;DHT22;10390;53.566;9.980;2023-02-08T04:46:24;20.60;1.00
20463;DHT22;10390;53.566;9.980;2023-02-08T04:48:49;20.60;1.00
20463;DHT22;10390;53.566;9.980;2023-02-08T04:51:15;20.50;1.00
20463;DHT22;10390;53.566;9.980;2023-02-08T04:53:40;20.50;1.00
20463;DHT22;10390;53.566;9.980;2023-02-08T04:56:06;20.50;1.00
20463;DHT22;10390;53.566;9.980;2023-02-08T04:58:32;20.50;1.00
20463;DHT22;10390;53.566;9.980;2023-02-08T05:00:57;20.50;1.00
20463;DHT22;10390;53.566;9.980;2023-02-08T05:03:23;20.40;1.00
20463;DHT22;10390;53.566;9.980;2023-02-08T05:05:58;20.40;1.00
20463;DHT22;10390;53.566;9.980;2023-02-08T05:08:24;20.50;1.00
20463;DHT22;10390;53.566;9.980;2023-02-08T05:10:50;20.50;1.00
20463;DHT22;10390;53.566;9.980;2023-02-08T05:13:16;20.50;1.00
20463;DHT22;10390;53.566;9.980;2023-02-08T05:15:41;20.50;1.00
20463;DHT22;10390;53.566;9.980;2023-02-08T05:18:07;20.40;1.00
20463;DHT22;10390;53.566;9.980;2023-02-08T05:20:33;20.50;1.00
20463;DHT22;10390;53.566;9.980;2023-02-08T05:22:58;20.50;1.00
20463;DHT22;10390;53.566;9.980;2023-02-08T05:25:24;20.50;1.00
20463;DHT22;10390;53.566;9.980;2023-02-08T05:27:50;20.40;1.00
20463;DHT22;10390;53.566;9.980;2023-02-08T05:30:15;20.40;1.00
20463;DHT22;10390;53.566;9.980;2023-02-08T05:32:41;20.40;1.00
20463;DHT22;10390;53.566;9.980;2023-02-08T05:35:07;20.40;1.00
20463;DHT22;10390;53.566;9.980;2023-02-08T05:37:33;20.40;1.00
20463;DHT22;10390;53.566;9.980;2023-02-08T05:39:58;20.40;1.00
20463;DHT22;10390;53.566;9.980;2023-02-08T05:42:24;20.30;1.00
20463;DHT22;10390;53.566;9.980;2023-02-08T05:44:50;20.30;1.00
20463;DHT22;10390;53.566;9.980;2023-02-08T05:47:16;20.30;1.00
20463;DHT22;10390;53.566;9.980;2023-02-08T05:49:41;20.20;1.00
20463;DHT22;10390;53.566;9.980;2023-02-08T05:52:07;20.20;1.00
20463;DHT22;10390;53.566;9.980;2023-02-08T05:54:32;20.10;1.00
20463;DHT22;10390;53.566;9.980;2023-02-08T05:56:58;20.10;1.00
20463;DHT22;10390;53.566;9.980;2023-02-08T05:59:24;20.10;1.00
20463;DHT22;10390;53.566;9.980;2023-02-08T06:01:49;20.10;1.00
20463;DHT22;10390;53.566;9.980;2023-02-08T06:04:15;20.10;1.00
20463;DHT22;10390;53.566;9.980;2023-02-08T06:06:40;20.20;1.00
20463;DHT22;10390;53.566;9.980;2023-02-08T06:09:06;20.20;1.00
20463;DHT22;10390;53.566;9.980;2023-02-08T06:11:31;20.20;1.00
20463;DHT22;10390;53.566;9.980;2023-02-08T06:13:58;20.30;1.00
20463;DHT22;10390;53.566;9.980;2023-02-08T06:16:23;20.30;1.00
20463;DHT22;10390;53.566;9.980;2023-02-08T06:18:49;20.40;1.00
20463;DHT22;10390;53.566;9.980;2023-02-08T06:21:14;20.40;1.00
20463;DHT22;10390;53.566;9.980;2023-02-08T06:23:40;20.40;1.00
20463;DHT22;10390;53.566;9.980;2023-02-08T06:26:06;20.50;1.00
20463;DHT22;10390;53.566;9.980;2023-02-08T06:28:32;20.50;1.00
20463;DHT22;10390;53.566;9.980;2023-02-08T06:30:58;20.60;1.00
20463;DHT22;10390;53.566;9.980;2023-02-08T06:33:24;20.60;1.00
20463;DHT22;10390;53.566;9.980;2023-02-08T06:35:51;20.70;1.00
20463;DHT22;10390;53.566;9.980;2023-02-08T06:38:17;20.70;1.00
20463;DHT22;10390;53.566;9.980;2023-02-08T06:40:45;20.70;1.00
20463;DHT22;10390;53.566;9.980;2023-02-08T06:43:11;20.70;1.00
20463;DHT22;10390;53.566;9.980;2023-02-08T06:45:36;20.70;1.00
20463;DHT22;10390;53.566;9.980;2023-02-08T06:48:02;20.70;1.00
20463;DHT22;10390;53.566;9.980;2023-02-08T06:50:28;20.70;1.00
20463;DHT22;10390;53.566;9.980;2023-02-08T06:52:54;20.70;1.00
20463;DHT22;10390;53.566;9.980;2023-02-08T06:55:19;20.70;1.00
20463;DHT22;10390;53.566;9.980;2023-02-08T06:57:45;20.70;1.00
20463;DHT22;10390;53.566;9.980;2023-02-08T07:00:11;20.70;1.00
20463;DHT22;10390;53.566;9.980;2023-02-08T07:02:36;20.60;1.00
20463;DHT22;10390;53.566;9.980;2023-02-08T07:05:02;20.60;1.00
20463;DHT22;10390;53.566;9.980;2023-02-08T07:07:28;20.60;1.00
20463;DHT22;10390;53.566;9.980;2023-02-08T07:09:53;20.50;1.00
20463;DHT22;10390;53.566;9.980;2023-02-08T07:12:19;20.60;1.00
20463;DHT22;10390;53.566;9.980;2023-02-08T07:14:45;20.50;1.00
20463;DHT22;10390;53.566;9.980;2023-02-08T07:17:11;20.50;1.00
20463;DHT22;10390;53.566;9.980;2023-02-08T07:19:37;20.40;1.00
20463;DHT22;10390;53.566;9.980;2023-02-08T07:22:03;20.40;1.00
20463;DHT22;10390;53.566;9.980;2023-02-08T07:24:34;20.40;1.00
20463;DHT22;10390;53.566;9.980;2023-02-08T07:27:00;20.40;1.00
20463;DHT22;10390;53.566;9.980;2023-02-08T07:29:28;20.30;1.00
20463;DHT22;10390;53.566;9.980;2023-02-08T07:31:54;20.30;1.00
20463;DHT22;10390;53.566;9.980;2023-02-08T07:34:19;20.30;1.00
20463;DHT22;10390;53.566;9.980;2023-02-08T07:36:47;20.30;1.00
20463;DHT22;10390;53.566;9.980;2023-02-08T07:39:13;20.30;1.00
20463;DHT22;10390;53.566;9.980;2023-02-08T07:41:39;20.30;1.00
20463;DHT22;10390;53.566;9.980;2023-02-08T07:44:05;20.30;1.00
20463;DHT22;10390;53.566;9.980;2023-02-08T07:46:30;20.30;1.00
20463;DHT22;10390;53.566;9.980;2023-02-08T07:48:56;20.30;1.00
20463;DHT22;10390;53.566;9.980;2023-02-08T07:51:22;20.30;1.00
20463;DHT22;10390;53.566;9.980;2023-02-08T07:53:48;20.30;1.00
20463;DHT22;10390;53.566;9.980;2023-02-08T07:56:13;20.30;1.00
20463;DHT22;10390;53.566;9.980;2023-02-08T07:58:39;20.30;1.00
20463;DHT22;10390;53.566;9.980;2023-02-08T08:01:05;20.30;1.00
20463;DHT22;10390;53.566;9.980;2023-02-08T08:03:30;20.30;1.00
20463;DHT22;10390;53.566;9.980;2023-02-08T08:05:56;20.40;1.00
20463;DHT22;10390;53.566;9.980;2023-02-08T08:08:21;20.40;1.00
20463;DHT22;10390;53.566;9.980;2023-02-08T08:10:47;20.40;1.00
20463;DHT22;10390;53.566;9.980;2023-02-08T08:13:13;20.40;1.00
20463;DHT22;10390;53.566;9.980;2023-02-08T08:15:39;20.40;1.00
20463;DHT22;10390;53.566;9.980;2023-02-08T08:18:05;20.40;1.00
20463;DHT22;10390;53.566;9.980;2023-02-08T08:20:31;20.50;1.00
20463;DHT22;10390;53.566;9.980;2023-02-08T08:22:57;20.50;1.00
20463;DHT22;10390;53.566;9.980;2023-02-08T08:25:23;20.50;1.00
20463;DHT22;10390;53.566;9.980;2023-02-08T08:27:48;20.50;1.00
20463;DHT22;10390;53.566;9.980;2023-02-08T08:30:16;20.60;1.00
20463;DHT22;10390;53.566;9.980;2023-02-08T08:32:41;20.60;1.00
20463;DHT22;10390;53.566;9.980;2023-02-08T08:35:08;20.60;1.00
20463;DHT22;10390;53.566;9.980;2023-02-08T08:37:34;20.60;1.00
20463;DHT22;10390;53.566;9.980;2023-02-08T08:40:00;20.70;1.00
20463;DHT22;10390;53.566;9.980;2023-02-08T08:42:26;20.60;1.00
20463;DHT22;10390;53.566;9.980;2023-02-08T08:44:52;20.70;1.00
20463;DHT22;10390;53.566;9.980;2023-02-08T08:47:18;20.70;1.00
20463;DHT22;10390;53.566;9.980;2023-02-08T08:49:44;20.80;1.00
20463;DHT22;10390;53.566;9.980;2023-02-08T08:52:11;20.80;1.00
20463;DHT22;10390;53.566;9.980;2023-02-08T08:54:37;20.90;1.00
20463;DHT22;10390;53.566;9.980;2023-02-08T08:57:03;21.00;1.00
20463;DHT22;10390;53.566;9.980;2023-02-08T08:59:29;21.00;1.00
20463;DHT22;10390;53.566;9.980;2023-02-08T09:01:55;21.10;1.00
20463;DHT22;10390;53.566;9.980;2023-02-08T09:04:20;21.20;1.00
20463;DHT22;10390;53.566;9.980;2023-02-08T09:06:50;21.20;1.00
20463;DHT22;10390;53.566;9.980;2023-02-08T09:09:15;21.30;1.00
20463;DHT22;10390;53.566;9.980;2023-02-08T09:11:41;21.40;1.00
20463;DHT22;10390;53.566;9.980;2023-02-08T09:14:07;21.40;1.00
20463;DHT22;10390;53.566;9.980;2023-02-08T09:16:34;21.50;1.00
20463;DHT22;10390;53.566;9.980;2023-02-08T09:19:07;21.50;1.00
20463;DHT22;10390;53.566;9.980;2023-02-08T09:21:33;21.60;1.00
20463;DHT22;10390;53.566;9.980;2023-02-08T09:24:02;21.60;1.00
20463;DHT22;10390;53.566;9.980;2023-02-08T09:26:28;21.60;1.00
20463;DHT22;10390;53.566;9.980;2023-02-08T09:28:54;21.70;1.00
20463;DHT22;10390;53.566;9.980;2023-02-08T09:31:30;21.70;1.00
20463;DHT22;10390;53.566;9.980;2023-02-08T09:33:57;21.80;1.00
20463;DHT22;10390;53.566;9.980;2023-02-08T09:36:25;21.80;1.00
20463;DHT22;10390;53.566;9.980;2023-02-08T09:38:55;21.80;1.00
20463;DHT22;10390;53.566;9.980;2023-02-08T09:41:39;21.90;1.00
20463;DHT22;10390;53.566;9.980;2023-02-08T09:47:21;21.90;1.00
20463;DHT22;10390;53.566;9.980;2023-02-08T09:50:04;22.00;1.00
20463;DHT22;10390;53.566;9.980;2023-02-08T09:55:20;22.10;1.00
20463;DHT22;10390;53.566;9.980;2023-02-08T09:57:50;22.10;1.00
20463;DHT22;10390;53.566;9.980;2023-02-08T10:00:34;22.10;1.00
20463;DHT22;10390;53.566;9.980;2023-02-08T10:03:01;22.20;1.00
20463;DHT22;10390;53.566;9.980;2023-02-08T10:05:29;22.20;1.00
20463;DHT22;10390;53.566;9.980;2023-02-08T10:07:55;22.20;1.00
20463;DHT22;10390;53.566;9.980;2023-02-08T10:15:54;22.40;1.00
20463;DHT22;10390;53.566;9.980;2023-02-08T10:18:49;22.40;1.00
20463;DHT22;10390;53.566;9.980;2023-02-08T10:21:48;22.40;1.00
20463;DHT22;10390;53.566;9.980;2023-02-08T10:25:00;22.40;1.00
20463;DHT22;10390;53.566;9.980;2023-02-08T10:33:12;22.50;1.00
20463;DHT22;10390;53.566;9.980;2023-02-08T10:35:44;22.50;1.00
20463;DHT22;10390;53.566;9.980;2023-02-08T10:40:46;22.50;1.00
20463;DHT22;10390;53.566;9.980;2023-02-08T10:43:31;22.60;1.00
20463;DHT22;10390;53.566;9.980;2023-02-08T10:49:03;22.60;1.00
20463;DHT22;10390;53.566;9.980;2023-02-08T10:51:31;22.70;1.00
20463;DHT22;10390;53.566;9.980;2023-02-08T10:53:57;22.70;1.00
20463;DHT22;10390;53.566;9.980;2023-02-08T10:59:29;22.70;1.00
20463;DHT22;10390;53.566;9.980;2023-02-08T11:01:57;22.70;1.00
20463;DHT22;10390;53.566;9.980;2023-02-08T11:04:23;22.70;1.00
20463;DHT22;10390;53.566;9.980;2023-02-08T11:06:50;22.80;1.00
20463;DHT22;10390;53.566;9.980;2023-02-08T11:09:45;22.80;1.00
20463;DHT22;10390;53.566;9.980;2023-02-08T11:12:18;22.80;1.00
20463;DHT22;10390;53.566;9.980;2023-02-08T11:14:48;22.80;1.00
20463;DHT22;10390;53.566;9.980;2023-02-08T11:17:27;22.80;1.00
20463;DHT22;10390;53.566;9.980;2023-02-08T11:19:53;22.80;1.00
20463;DHT22;10390;53.566;9.980;2023-02-08T11:22:22;22.80;1.00
20463;DHT22;10390;53.566;9.980;2023-02-08T11:25:00;22.80;1.00
20463;DHT22;10390;53.566;9.980;2023-02-08T11:27:34;22.90;1.00
20463;DHT22;10390;53.566;9.980;2023-02-08T11:32:40;22.90;1.00
20463;DHT22;10390;53.566;9.980;2023-02-08T11:35:17;22.90;1.00
20463;DHT22;10390;53.566;9.980;2023-02-08T11:37:48;22.90;1.00
20463;DHT22;10390;53.566;9.980;2023-02-08T11:40:23;22.90;1.00
20463;DHT22;10390;53.566;9.980;2023-02-08T11:42:50;22.90;1.00
20463;DHT22;10390;53.566;9.980;2023-02-08T11:45:33;22.90;1.00
20463;DHT22;10390;53.566;9.980;2023-02-08T11:48:00;22.90;1.00
20463;DHT22;10390;53.566;9.980;2023-02-08T11:50:32;22.90;1.00
20463;DHT22;10390;53.566;9.980;2023-02-08T11:53:20;22.90;1.00
20463;DHT22;10390;53.566;9.980;2023-02-08T11:56:05;22.90;1.00
20463;DHT22;10390;53.566;9.980;2023-02-08T11:58:32;22.90;1.00
20463;DHT22;10390;53.566;9.980;2023-02-08T12:01:02;22.90;1.00
20463;DHT22;10390;53.566;9.980;2023-02-08T12:03:38;22.90;1.00
20463;DHT22;10390;53.566;9.980;2023-02-08T12:07:00;22.90;1.00
20463;DHT22;10390;53.566;9.980;2023-02-08T12:09:42;22.90;1.00
20463;DHT22;10390;53.566;9.980;2023-02-08T12:12:27;22.90;1.00
20463;DHT22;10390;53.566;9.980;2023-02-08T12:15:21;22.90;1.00
20463;DHT22;10390;53.566;9.980;2023-02-08T12:18:04;22.90;1.00
20463;DHT22;10390;53.566;9.980;2023-02-08T12:23:19;22.90;1.00
20463;DHT22;10390;53.566;9.980;2023-02-08T12:26:03;22.90;1.00
20463;DHT22;10390;53.566;9.980;2023-02-08T12:41:01;22.90;1.00
20463;DHT22;10390;53.566;9.980;2023-02-08T12:46:43;22.90;1.00
20463;DHT22;10390;53.566;9.980;2023-02-08T12:52:08;22.90;1.00
20463;DHT22;10390;53.566;9.980;2023-02-08T12:54:51;22.80;1.00
20463;DHT22;10390;53.566;9.980;2023-02-08T12:57:22;22.80;1.00
20463;DHT22;10390;53.566;9.980;2023-02-08T13:00:00;22.80;1.00
20463;DHT22;10390;53.566;9.980;2023-02-08T13:02:34;22.80;1.00
20463;DHT22;10390;53.566;9.980;2023-02-08T13:05:15;22.80;1.00
20463;DHT22;10390;53.566;9.980;2023-02-08T13:07:43;22.80;1.00
20463;DHT22;10390;53.566;9.980;2023-02-08T13:10:17;22.80;1.00
20463;DHT22;10390;53.566;9.980;2023-02-08T13:12:47;22.70;1.00
20463;DHT22;10390;53.566;9.980;2023-02-08T13:15:28;22.70;1.00
20463;DHT22;10390;53.566;9.980;2023-02-08T13:18:09;22.70;1.00
20463;DHT22;10390;53.566;9.980;2023-02-08T13:20:40;22.70;1.00
20463;DHT22;10390;53.566;9.980;2023-02-08T13:23:37;22.70;1.00
20463;DHT22;10390;53.566;9.980;2023-02-08T13:26:32;22.60;1.00
20463;DHT22;10390;53.566;9.980;2023-02-08T13:29:00;22.60;1.00
20463;DHT22;10390;53.566;9.980;2023-02-08T13:31:55;22.60;1.00
20463;DHT22;10390;53.566;9.980;2023-02-08T13:34:51;22.60;1.00
20463;DHT22;10390;53.566;9.980;2023-02-08T13:39:45;22.50;1.00
20463;DHT22;10390;53.566;9.980;2023-02-08T13:42:36;22.50;1.00
20463;DHT22;10390;53.566;9.980;2023-02-08T13:45:05;22.50;1.00
20463;DHT22;10390;53.566;9.980;2023-02-08T13:47:42;22.50;1.00
20463;DHT22;10390;53.566;9.980;2023-02-08T13:53:00;22.40;1.00
20463;DHT22;10390;53.566;9.980;2023-02-08T14:03:27;22.40;1.00
20463;DHT22;10390;53.566;9.980;2023-02-08T14:06:03;22.40;1.00
20463;DHT22;10390;53.566;9.980;2023-02-08T14:13:35;22.30;1.00
20463;DHT22;10390;53.566;9.980;2023-02-08T14:19:00;22.20;1.00
20463;DHT22;10390;53.566;9.980;2023-02-08T14:24:06;22.30;1.00
20463;DHT22;10390;53.566;9.980;2023-02-08T14:26:41;22.20;1.00
20463;DHT22;10390;53.566;9.980;2023-02-08T14:29:07;22.30;1.00
20463;DHT22;10390;53.566;9.980;2023-02-08T14:31:41;22.20;1.00
20463;DHT22;10390;53.566;9.980;2023-02-08T14:34:26;22.20;1.00
20463;DHT22;10390;53.566;9.980;2023-02-08T14:37:05;22.20;1.00
20463;DHT22;10390;53.566;9.980;2023-02-08T14:39:47;22.20;1.00
20463;DHT22;10390;53.566;9.980;2023-02-08T14:42:56;22.10;1.00
20463;DHT22;10390;53.566;9.980;2023-02-08T14:45:35;22.10;1.00
20463;DHT22;10390;53.566;9.980;2023-02-08T14:48:29;22.10;1.00
20463;DHT22;10390;53.566;9.980;2023-02-08T14:53:51;22.00;1.00
20463;DHT22;10390;53.566;9.980;2023-02-08T14:56:23;22.00;1.00
20463;DHT22;10390;53.566;9.980;2023-02-08T15:01:41;21.90;1.00
20463;DHT22;10390;53.566;9.980;2023-02-08T15:04:07;21.90;1.00
20463;DHT22;10390;53.566;9.980;2023-02-08T15:09:19;21.80;1.00
20463;DHT22;10390;53.566;9.980;2023-02-08T15:12:44;21.70;1.00
20463;DHT22;10390;53.566;9.980;2023-02-08T15:14:43;21.70;1.00
20463;DHT22;10390;53.566;9.980;2023-02-08T15:20:16;21.60;1.00
20463;DHT22;10390;53.566;9.980;2023-02-08T15:22:43;21.60;1.00
20463;DHT22;10390;53.566;9.980;2023-02-08T15:25:30;21.60;1.00
20463;DHT22;10390;53.566;9.980;2023-02-08T15:28:20;21.50;1.00
20463;DHT22;10390;53.566;9.980;2023-02-08T15:30:53;21.50;1.00
20463;DHT22;10390;53.566;9.980;2023-02-08T15:33:19;21.50;1.00
20463;DHT22;10390;53.566;9.980;2023-02-08T15:35:55;21.50;1.00
20463;DHT22;10390;53.566;9.980;2023-02-08T15:38:22;21.50;1.00
20463;DHT22;10390;53.566;9.980;2023-02-08T15:43:29;21.50;1.00
20463;DHT22;10390;53.566;9.980;2023-02-08T15:46:01;21.50;1.00
20463;DHT22;10390;53.566;9.980;2023-02-08T15:48:28;21.50;1.00
20463;DHT22;10390;53.566;9.980;2023-02-08T15:50:54;21.50;1.00
20463;DHT22;10390;53.566;9.980;2023-02-08T15:53:21;21.50;1.00
20463;DHT22;10390;53.566;9.980;2023-02-08T15:55:59;21.50;1.00
20463;DHT22;10390;53.566;9.980;2023-02-08T15:58:30;21.50;1.00
20463;DHT22;10390;53.566;9.980;2023-02-08T16:00:58;21.50;1.00
20463;DHT22;10390;53.566;9.980;2023-02-08T16:03:25;21.50;1.00
20463;DHT22;10390;53.566;9.980;2023-02-08T16:05:58;21.50;1.00
20463;DHT22;10390;53.566;9.980;2023-02-08T16:08:30;21.50;1.00
20463;DHT22;10390;53.566;9.980;2023-02-08T16:10:59;21.50;1.00
20463;DHT22;10390;53.566;9.980;2023-02-08T16:13:36;21.50;1.00
20463;DHT22;10390;53.566;9.980;2023-02-08T16:16:17;21.50;1.00
20463;DHT22;10390;53.566;9.980;2023-02-08T16:18:54;21.50;1.00
20463;DHT22;10390;53.566;9.980;2023-02-08T16:21:33;21.50;1.00
20463;DHT22;10390;53.566;9.980;2023-02-08T16:24:04;21.50;1.00
20463;DHT22;10390;53.566;9.980;2023-02-08T16:26:34;21.50;1.00
20463;DHT22;10390;53.566;9.980;2023-02-08T16:29:14;21.50;1.00
20463;DHT22;10390;53.566;9.980;2023-02-08T16:31:41;21.50;1.00
20463;DHT22;10390;53.566;9.980;2023-02-08T16:34:15;21.50;1.00
20463;DHT22;10390;53.566;9.980;2023-02-08T16:36:44;21.50;1.00
20463;DHT22;10390;53.566;9.980;2023-02-08T16:44:25;21.50;1.00
20463;DHT22;10390;53.566;9.980;2023-02-08T16:46:51;21.50;1.00
20463;DHT22;10390;53.566;9.980;2023-02-08T16:49:17;21.40;1.00
20463;DHT22;10390;53.566;9.980;2023-02-08T16:51:43;21.40;1.00
20463;DHT22;10390;53.566;9.980;2023-02-08T16:54:19;21.40;1.00
20463;DHT22;10390;53.566;9.980;2023-02-08T16:56:46;21.40;1.00
20463;DHT22;10390;53.566;9.980;2023-02-08T16:59:14;21.40;1.00
20463;DHT22;10390;53.566;9.980;2023-02-08T17:01:41;21.40;1.00
20463;DHT22;10390;53.566;9.980;2023-02-08T17:04:12;21.40;1.00
20463;DHT22;10390;53.566;9.980;2023-02-08T17:06:40;21.40;1.00
20463;DHT22;10390;53.566;9.980;2023-02-08T17:09:07;21.40;1.00
20463;DHT22;10390;53.566;9.980;2023-02-08T17:11:35;21.40;1.00
20463;DHT22;10390;53.566;9.980;2023-02-08T17:14:01;21.40;1.00
20463;DHT22;10390;53.566;9.980;2023-02-08T17:16:30;21.40;1.00
20463;DHT22;10390;53.566;9.980;2023-02-08T17:18:57;21.40;1.00
20463;DHT22;10390;53.566;9.980;2023-02-08T17:21:23;21.40;1.00
20463;DHT22;10390;53.566;9.980;2023-02-08T17:23:48;21.40;1.00
20463;DHT22;10390;53.566;9.980;2023-02-08T17:26:26;21.40;1.00
20463;DHT22;10390;53.566;9.980;2023-02-08T17:28:56;21.40;1.00
20463;DHT22;10390;53.566;9.980;2023-02-08T17:31:23;21.30;1.00
20463;DHT22;10390;53.566;9.980;2023-02-08T17:33:49;21.30;1.00
20463;DHT22;10390;53.566;9.980;2023-02-08T17:36:15;21.30;1.00
20463;DHT22;10390;53.566;9.980;2023-02-08T17:38:43;21.30;1.00
20463;DHT22;10390;53.566;9.980;2023-02-08T17:41:15;21.30;1.00
20463;DHT22;10390;53.566;9.980;2023-02-08T17:43:41;21.20;1.00
20463;DHT22;10390;53.566;9.980;2023-02-08T17:46:09;21.20;1.00
20463;DHT22;10390;53.566;9.980;2023-02-08T17:48:35;21.10;1.00
20463;DHT22;10390;53.566;9.980;2023-02-08T17:51:01;21.10;1.00
20463;DHT22;10390;53.566;9.980;2023-02-08T17:53:26;21.10;1.00
20463;DHT22;10390;53.566;9.980;2023-02-08T17:55:52;21.10;1.00
20463;DHT22;10390;53.566;9.980;2023-02-08T17:58:17;21.10;1.00
20463;DHT22;10390;53.566;9.980;2023-02-08T18:00:43;21.00;1.00
20463;DHT22;10390;53.566;9.980;2023-02-08T18:03:09;21.00;1.00
20463;DHT22;10390;53.566;9.980;2023-02-08T18:05:35;21.00;1.00
20463;DHT22;10390;53.566;9.980;2023-02-08T18:08:01;21.00;1.00
20463;DHT22;10390;53.566;9.980;2023-02-08T18:10:27;20.90;1.00
20463;DHT22;10390;53.566;9.980;2023-02-08T18:12:53;20.90;1.00
20463;DHT22;10390;53.566;9.980;2023-02-08T18:15:20;20.80;1.00
20463;DHT22;10390;53.566;9.980;2023-02-08T18:17:46;20.80;1.00
20463;DHT22;10390;53.566;9.980;2023-02-08T18:20:13;20.80;1.00
20463;DHT22;10390;53.566;9.980;2023-02-08T18:22:40;20.80;1.00